Time;durP1;ratioP1;P1;durP2;ratioP2;P2;SDS_P1;SDS_P2;PMS_P1;PMS_P2;Temp;Humidity;BMP_temperature;BMP_pressure;BME280_temperature;BME280_humidity;BME280_pressure;Samples;Min_cycle;Max_cycle;Signal;HPM_P1;HPM_P2
2022/12/18 00:00:56;;;;;;;;;;;0.40;99.90;;;;;;5012820;28;19909;-76
2022/12/18 00:03:21;;;;;;;;;;;0.30;99.90;;;;;;5011887;28;20405;-78
2022/12/18 00:05:48;;;;;;;;;;;0.30;99.90;;;;;;5011104;28;19913;-77
2022/12/18 00:08:13;;;;;;;;;;;0.30;99.90;;;;;;5011996;28;20351;-77
2022/12/18 00:10:39;;;;;;;;;;;0.30;99.90;;;;;;5011092;28;20009;-77
2022/12/18 00:13:05;;;;;;;;;;;0.30;99.90;;;;;;5012547;28;19910;-77
2022/12/18 00:15:32;;;;;;;;;;;0.40;99.90;;;;;;5011383;28;19910;-76
2022/12/18 00:17:58;;;;;;;;;;;0.50;99.90;;;;;;5012021;28;19956;-77
2022/12/18 00:20:25;;;;;;;;;;;0.50;99.90;;;;;;5011426;28;19910;-77
2022/12/18 00:22:54;;;;;;;;;;;0.60;99.90;;;;;;5011060;28;19921;-76
2022/12/18 00:25:20;;;;;;;;;;;0.70;99.90;;;;;;5011368;28;19985;-80
2022/12/18 00:27:45;;;;;;;;;;;0.70;99.90;;;;;;5012174;28;20263;-78
2022/12/18 00:30:11;;;;;;;;;;;0.80;99.90;;;;;;5011575;28;19909;-77
2022/12/18 00:32:37;;;;;;;;;;;0.90;99.90;;;;;;5011734;28;20091;-77
2022/12/18 00:35:03;;;;;;;;;;;1.10;99.90;;;;;;5011804;28;19942;-76
2022/12/18 00:37:28;;;;;;;;;;;1.30;99.90;;;;;;5010434;28;19926;-77
2022/12/18 00:39:54;;;;;;;;;;;1.50;99.90;;;;;;5011987;28;19932;-76
2022/12/18 00:45:04;;;;;;;;;;;2.00;99.90;;;;;;5011548;28;19968;-78
2022/12/18 00:47:29;;;;;;;;;;;2.20;99.90;;;;;;5011652;28;20355;-77
2022/12/18 00:49:55;;;;;;;;;;;2.20;99.90;;;;;;5011426;28;20093;-77
2022/12/18 00:52:20;;;;;;;;;;;2.30;99.90;;;;;;5010238;28;19910;-78
2022/12/18 00:54:46;;;;;;;;;;;2.50;99.90;;;;;;5011662;28;20339;-81
2022/12/18 00:57:12;;;;;;;;;;;2.60;99.90;;;;;;5012035;28;19914;-79
2022/12/18 00:59:37;;;;;;;;;;;2.60;99.90;;;;;;5011202;28;19972;-79
2022/12/18 01:02:03;;;;;;;;;;;2.50;99.90;;;;;;5011331;28;19953;-79
2022/12/18 01:04:31;;;;;;;;;;;2.50;99.90;;;;;;5010685;28;19914;-79
2022/12/18 01:06:56;;;;;;;;;;;2.50;99.90;;;;;;5011325;28;19913;-79
2022/12/18 01:09:22;;;;;;;;;;;2.50;99.90;;;;;;5010951;28;20363;-80
2022/12/18 01:11:47;;;;;;;;;;;2.50;99.90;;;;;;5011316;28;20007;-79
2022/12/18 01:14:13;;;;;;;;;;;2.50;99.90;;;;;;5009539;28;19910;-79
2022/12/18 01:16:38;;;;;;;;;;;2.50;99.90;;;;;;5010474;28;19916;-78
2022/12/18 01:19:04;;;;;;;;;;;2.40;99.90;;;;;;5011011;28;19941;-77
2022/12/18 01:21:29;;;;;;;;;;;2.40;99.90;;;;;;5010577;28;20386;-79
2022/12/18 01:23:56;;;;;;;;;;;2.20;99.90;;;;;;5010411;28;19920;-78
2022/12/18 01:26:21;;;;;;;;;;;2.20;99.90;;;;;;5010504;28;19913;-80
2022/12/18 01:28:47;;;;;;;;;;;2.20;99.90;;;;;;5009731;28;20294;-78
2022/12/18 01:31:12;;;;;;;;;;;2.20;99.90;;;;;;5011331;28;19918;-78
2022/12/18 01:33:38;;;;;;;;;;;2.40;99.90;;;;;;5010739;28;19909;-78
2022/12/18 01:36:04;;;;;;;;;;;2.60;99.90;;;;;;5011229;28;19922;-79
2022/12/18 01:38:29;;;;;;;;;;;2.60;99.90;;;;;;5011089;28;19955;-79
2022/12/18 01:40:59;;;;;;;;;;;2.60;99.90;;;;;;5011194;28;20357;-79
2022/12/18 01:43:43;;;;;;;;;;;2.70;99.90;;;;;;5011043;28;19920;-80
2022/12/18 01:46:09;;;;;;;;;;;2.80;99.90;;;;;;5011721;28;20008;-79
2022/12/18 01:48:34;;;;;;;;;;;2.90;99.90;;;;;;5012667;28;20335;-80
2022/12/18 01:51:00;;;;;;;;;;;3.00;99.90;;;;;;5015679;28;19952;-79
2022/12/18 01:53:26;;;;;;;;;;;3.10;99.90;;;;;;5012715;28;19921;-80
2022/12/18 01:55:53;;;;;;;;;;;3.10;99.90;;;;;;5014782;28;19917;-80
2022/12/18 01:58:19;;;;;;;;;;;3.10;99.90;;;;;;5015208;28;19933;-80
2022/12/18 02:00:45;;;;;;;;;;;3.20;99.90;;;;;;5014357;28;19909;-80
2022/12/18 02:03:11;;;;;;;;;;;3.30;99.90;;;;;;5014642;28;19918;-81
2022/12/18 02:05:43;;;;;;;;;;;3.40;99.90;;;;;;5014340;28;19921;-80
2022/12/18 02:08:12;;;;;;;;;;;3.40;99.90;;;;;;5014351;28;20025;-79
2022/12/18 02:10:40;;;;;;;;;;;3.70;99.90;;;;;;5013766;28;20485;-80
2022/12/18 02:13:12;;;;;;;;;;;3.70;99.90;;;;;;5014198;28;20374;-80
2022/12/18 02:15:38;;;;;;;;;;;3.70;99.90;;;;;;5013832;28;19914;-80
2022/12/18 02:18:15;;;;;;;;;;;3.70;99.90;;;;;;5014153;28;20359;-80
2022/12/18 02:20:47;;;;;;;;;;;3.70;99.90;;;;;;5013506;28;19910;-80
2022/12/18 02:23:18;;;;;;;;;;;3.70;99.90;;;;;;5013376;28;20355;-80
2022/12/18 02:25:53;;;;;;;;;;;3.60;99.90;;;;;;5013419;28;19920;-80
2022/12/18 02:28:20;;;;;;;;;;;3.70;99.90;;;;;;5013975;28;19916;-79
2022/12/18 02:30:47;;;;;;;;;;;3.60;99.90;;;;;;5013842;28;20473;-80
2022/12/18 02:33:13;;;;;;;;;;;3.60;99.90;;;;;;5013618;28;19963;-80
2022/12/18 02:35:40;;;;;;;;;;;3.60;99.90;;;;;;5012888;28;19913;-80
2022/12/18 02:38:05;;;;;;;;;;;3.70;99.90;;;;;;5013636;28;20019;-80
2022/12/18 02:40:31;;;;;;;;;;;3.70;99.90;;;;;;5013600;28;20000;-81
2022/12/18 02:43:07;;;;;;;;;;;3.80;99.90;;;;;;5014081;28;20004;-79
2022/12/18 02:45:33;;;;;;;;;;;3.80;99.90;;;;;;5013473;28;19914;-79
2022/12/18 02:47:58;;;;;;;;;;;3.80;99.90;;;;;;5013750;28;19909;-81
2022/12/18 02:50:30;;;;;;;;;;;3.70;99.90;;;;;;5012178;28;19917;-82
2022/12/18 02:53:03;;;;;;;;;;;3.80;99.90;;;;;;5013782;28;20008;-82
2022/12/18 02:55:35;;;;;;;;;;;3.80;99.90;;;;;;5013544;28;19979;-82
2022/12/18 02:58:03;;;;;;;;;;;3.90;99.90;;;;;;5013878;28;19910;-81
2022/12/18 03:00:37;;;;;;;;;;;4.00;99.90;;;;;;5012605;28;19955;-83
2022/12/18 03:03:23;;;;;;;;;;;4.10;99.90;;;;;;5013658;28;20345;-81
2022/12/18 03:05:51;;;;;;;;;;;4.10;99.90;;;;;;5013173;28;19928;-81
2022/12/18 03:08:28;;;;;;;;;;;4.40;99.90;;;;;;5013362;28;19910;-82
2022/12/18 03:11:10;;;;;;;;;;;4.40;99.90;;;;;;5013232;28;19916;-83
2022/12/18 03:13:40;;;;;;;;;;;4.40;99.90;;;;;;5013015;28;19909;-83
2022/12/18 03:16:07;;;;;;;;;;;4.50;99.90;;;;;;5013033;28;19909;-80
2022/12/18 03:18:35;;;;;;;;;;;4.50;99.90;;;;;;5012786;28;19921;-82
2022/12/18 03:21:04;;;;;;;;;;;4.50;99.90;;;;;;5012683;28;19993;-82
2022/12/18 03:23:34;;;;;;;;;;;4.50;99.90;;;;;;5012441;28;20363;-81
2022/12/18 03:26:04;;;;;;;;;;;4.50;99.90;;;;;;5012414;28;19921;-81
2022/12/18 03:28:32;;;;;;;;;;;4.60;99.90;;;;;;5011383;28;19909;-81
2022/12/18 03:30:59;;;;;;;;;;;4.60;99.90;;;;;;5013501;28;19910;-80
2022/12/18 03:33:27;;;;;;;;;;;4.60;99.90;;;;;;5013832;28;19910;-80
2022/12/18 03:35:52;;;;;;;;;;;4.60;99.90;;;;;;5014136;28;19921;-80
2022/12/18 03:38:18;;;;;;;;;;;4.70;99.90;;;;;;5030626;28;19940;-81
2022/12/18 03:40:52;;;;;;;;;;;4.70;99.90;;;;;;5035245;28;19997;-80
2022/12/18 03:43:36;;;;;;;;;;;4.80;99.90;;;;;;5034807;28;19906;-80
2022/12/18 03:46:04;;;;;;;;;;;4.90;99.90;;;;;;5035992;28;19928;-81
2022/12/18 03:48:37;;;;;;;;;;;4.90;99.90;;;;;;5034816;28;19913;-81
2022/12/18 03:51:09;;;;;;;;;;;4.80;99.90;;;;;;5013714;28;20040;-80
2022/12/18 03:53:34;;;;;;;;;;;4.80;99.90;;;;;;5012237;28;19913;-80
2022/12/18 03:56:00;;;;;;;;;;;4.90;99.90;;;;;;5012917;28;19963;-80
2022/12/18 03:58:26;;;;;;;;;;;4.90;99.90;;;;;;5012644;28;20347;-79
2022/12/18 04:00:54;;;;;;;;;;;4.90;99.90;;;;;;5011968;28;19963;-81
2022/12/18 04:03:20;;;;;;;;;;;4.90;99.90;;;;;;5012702;28;19913;-80
2022/12/18 04:05:47;;;;;;;;;;;4.90;99.90;;;;;;5011906;28;19914;-80
2022/12/18 04:08:13;;;;;;;;;;;5.00;99.90;;;;;;5012446;28;20224;-79
2022/12/18 04:10:39;;;;;;;;;;;5.00;99.90;;;;;;5011886;28;19921;-81
2022/12/18 04:13:04;;;;;;;;;;;5.10;99.90;;;;;;5011663;28;19917;-80
2022/12/18 04:15:31;;;;;;;;;;;5.10;99.90;;;;;;5010797;28;19910;-80
2022/12/18 04:17:57;;;;;;;;;;;5.10;99.90;;;;;;5010489;28;20377;-80
2022/12/18 04:20:22;;;;;;;;;;;5.20;99.90;;;;;;5012217;28;20000;-80
2022/12/18 04:22:48;;;;;;;;;;;5.20;99.90;;;;;;5011376;28;19973;-80
2022/12/18 04:25:13;;;;;;;;;;;5.20;99.90;;;;;;5010353;28;19913;-80
2022/12/18 04:27:39;;;;;;;;;;;5.20;99.90;;;;;;5011860;28;19916;-79
2022/12/18 04:30:05;;;;;;;;;;;5.20;99.90;;;;;;5011962;28;19921;-80
2022/12/18 04:32:30;;;;;;;;;;;5.20;99.90;;;;;;5012028;28;19963;-81
2022/12/18 04:34:56;;;;;;;;;;;5.20;99.90;;;;;;5011395;28;19914;-82
2022/12/18 04:37:22;;;;;;;;;;;5.20;99.90;;;;;;5011637;28;20019;-81
2022/12/18 04:39:47;;;;;;;;;;;5.20;99.90;;;;;;5011500;28;20351;-81
2022/12/18 04:42:13;;;;;;;;;;;5.20;99.90;;;;;;5011986;28;19914;-81
2022/12/18 04:44:38;;;;;;;;;;;5.30;99.90;;;;;;5011597;28;19920;-80
2022/12/18 04:47:04;;;;;;;;;;;5.30;99.90;;;;;;5011695;28;20418;-81
2022/12/18 04:49:31;;;;;;;;;;;5.30;99.90;;;;;;5010788;28;21599;-81
2022/12/18 04:51:57;;;;;;;;;;;5.30;99.90;;;;;;5011136;28;19913;-82
2022/12/18 04:54:22;;;;;;;;;;;5.30;99.90;;;;;;5012140;28;19916;-80
2022/12/18 04:56:48;;;;;;;;;;;5.40;99.90;;;;;;5011568;28;19913;-80
2022/12/18 04:59:14;;;;;;;;;;;5.40;99.90;;;;;;5012081;28;20326;-80
2022/12/18 05:01:39;;;;;;;;;;;5.40;99.90;;;;;;5011909;28;19999;-81
2022/12/18 05:04:05;;;;;;;;;;;5.40;99.90;;;;;;5012434;28;19920;-80
2022/12/18 05:06:30;;;;;;;;;;;5.40;99.90;;;;;;5011834;28;19917;-81
2022/12/18 05:08:56;;;;;;;;;;;5.40;99.90;;;;;;5009934;28;20523;-81
2022/12/18 05:11:22;;;;;;;;;;;5.40;99.90;;;;;;5011595;28;19967;-82
2022/12/18 05:13:47;;;;;;;;;;;5.30;99.90;;;;;;5011393;28;20007;-81
2022/12/18 05:16:13;;;;;;;;;;;5.30;99.90;;;;;;5011954;28;19910;-82
2022/12/18 05:18:38;;;;;;;;;;;5.30;99.90;;;;;;5011792;28;19916;-82
2022/12/18 05:21:04;;;;;;;;;;;5.30;99.90;;;;;;5011773;28;19914;-81
2022/12/18 05:23:30;;;;;;;;;;;5.40;99.90;;;;;;5013612;28;19925;-81
2022/12/18 05:25:57;;;;;;;;;;;5.40;99.90;;;;;;5015384;28;19968;-81
2022/12/18 05:28:24;;;;;;;;;;;5.40;99.90;;;;;;5014402;28;20425;-81
2022/12/18 05:30:50;;;;;;;;;;;5.50;99.90;;;;;;5014832;28;19921;-83
2022/12/18 05:33:16;;;;;;;;;;;5.50;99.90;;;;;;5015249;28;19963;-82
2022/12/18 05:35:41;;;;;;;;;;;5.50;99.90;;;;;;5014166;28;19918;-84
2022/12/18 05:38:07;;;;;;;;;;;5.50;99.90;;;;;;5015324;28;19924;-82
2022/12/18 05:40:32;;;;;;;;;;;5.50;99.90;;;;;;5015416;28;19909;-81
2022/12/18 05:42:58;;;;;;;;;;;5.50;99.90;;;;;;5014534;28;19913;-82
2022/12/18 05:45:24;;;;;;;;;;;5.50;99.90;;;;;;5015276;28;19921;-81
2022/12/18 05:47:49;;;;;;;;;;;5.50;99.90;;;;;;5014553;28;20350;-82
2022/12/18 05:50:15;;;;;;;;;;;5.50;99.90;;;;;;5015260;28;20014;-82
2022/12/18 05:52:40;;;;;;;;;;;5.60;99.90;;;;;;5014453;28;19944;-84
2022/12/18 05:55:06;;;;;;;;;;;5.50;99.90;;;;;;5014787;28;19960;-82
2022/12/18 05:57:32;;;;;;;;;;;5.50;99.90;;;;;;5014960;28;20026;-82
2022/12/18 05:59:57;;;;;;;;;;;5.50;99.90;;;;;;5014566;28;19945;-82
2022/12/18 06:02:23;;;;;;;;;;;5.50;99.90;;;;;;5014629;28;19909;-82
2022/12/18 06:04:48;;;;;;;;;;;5.60;99.90;;;;;;5014328;28;19960;-81
2022/12/18 06:07:14;;;;;;;;;;;5.50;99.90;;;;;;5014427;28;19968;-83
2022/12/18 06:09:39;;;;;;;;;;;5.60;99.90;;;;;;5014083;28;19916;-83
2022/12/18 06:12:05;;;;;;;;;;;5.60;99.90;;;;;;5014232;28;19917;-84
2022/12/18 06:14:31;;;;;;;;;;;5.60;99.90;;;;;;5012724;28;19958;-85
2022/12/18 06:16:56;;;;;;;;;;;5.60;99.90;;;;;;5014254;28;19910;-84
2022/12/18 06:19:22;;;;;;;;;;;5.50;99.90;;;;;;5014474;28;19920;-85
2022/12/18 06:21:49;;;;;;;;;;;5.50;99.90;;;;;;5013669;28;19950;-82
2022/12/18 06:24:14;;;;;;;;;;;5.50;99.90;;;;;;5014121;28;20323;-83
2022/12/18 06:26:40;;;;;;;;;;;5.50;99.90;;;;;;5014235;28;19963;-85
2022/12/18 06:29:05;;;;;;;;;;;5.50;99.90;;;;;;5013917;28;19921;-84
2022/12/18 06:31:31;;;;;;;;;;;5.50;99.90;;;;;;5014384;28;19929;-83
2022/12/18 06:33:57;;;;;;;;;;;5.50;99.90;;;;;;5013262;28;19917;-83
2022/12/18 06:36:22;;;;;;;;;;;5.50;99.90;;;;;;5012874;28;20233;-83
2022/12/18 06:38:48;;;;;;;;;;;5.50;99.90;;;;;;5013563;28;19913;-83
2022/12/18 06:41:16;;;;;;;;;;;5.50;99.90;;;;;;5014277;28;19909;-83
2022/12/18 06:43:41;;;;;;;;;;;5.50;99.90;;;;;;5012592;28;20055;-84
2022/12/18 06:46:08;;;;;;;;;;;5.50;99.90;;;;;;5013967;28;20000;-83
2022/12/18 06:48:33;;;;;;;;;;;5.50;99.90;;;;;;5013791;28;19910;-84
2022/12/18 06:50:59;;;;;;;;;;;5.50;99.90;;;;;;5013390;28;19921;-82
2022/12/18 06:53:24;;;;;;;;;;;5.50;99.90;;;;;;5013743;28;20247;-83
2022/12/18 06:55:50;;;;;;;;;;;5.50;99.90;;;;;;5013238;28;20151;-83
2022/12/18 06:58:16;;;;;;;;;;;5.50;99.90;;;;;;5013356;28;20219;-83
2022/12/18 07:00:42;;;;;;;;;;;5.50;99.90;;;;;;5013838;28;19913;-83
2022/12/18 07:03:08;;;;;;;;;;;5.50;99.90;;;;;;5013064;28;19920;-83
2022/12/18 07:05:33;;;;;;;;;;;5.50;99.90;;;;;;5012479;28;19936;-82
2022/12/18 07:07:59;;;;;;;;;;;5.50;99.90;;;;;;5012631;28;19952;-84
2022/12/18 07:10:24;;;;;;;;;;;5.40;99.90;;;;;;5013975;28;19992;-84
2022/12/18 07:12:50;;;;;;;;;;;5.40;99.90;;;;;;5013595;28;19910;-83
2022/12/18 07:15:16;;;;;;;;;;;5.30;99.90;;;;;;5013740;28;20339;-82
2022/12/18 07:17:41;;;;;;;;;;;5.40;99.90;;;;;;5014236;28;19909;-82
2022/12/18 07:20:07;;;;;;;;;;;5.30;99.90;;;;;;5012136;28;19910;-81
2022/12/18 07:22:33;;;;;;;;;;;5.30;99.90;;;;;;5011457;28;20366;-81
2022/12/18 07:24:58;;;;;;;;;;;5.30;99.90;;;;;;5013256;28;20006;-82
2022/12/18 07:27:24;;;;;;;;;;;5.30;99.90;;;;;;5012951;28;19913;-82
2022/12/18 07:29:49;;;;;;;;;;;5.30;99.90;;;;;;5014885;28;19953;-82
2022/12/18 07:32:15;;;;;;;;;;;5.30;99.90;;;;;;5019295;28;19982;-82
2022/12/18 07:34:41;;;;;;;;;;;5.20;99.90;;;;;;5021747;28;19929;-83
2022/12/18 07:37:06;;;;;;;;;;;5.20;99.90;;;;;;5018102;28;19924;-82
2022/12/18 07:39:32;;;;;;;;;;;5.20;99.90;;;;;;5022080;28;19959;-83
2022/12/18 07:44:41;;;;;;;;;;;5.20;99.90;;;;;;5027610;28;19921;-80
2022/12/18 07:47:07;;;;;;;;;;;5.20;99.90;;;;;;5033513;28;19969;-80
2022/12/18 07:49:32;;;;;;;;;;;5.30;99.90;;;;;;5034079;28;19917;-83
2022/12/18 07:51:58;;;;;;;;;;;5.30;99.90;;;;;;5033528;28;19961;-81
2022/12/18 07:54:24;;;;;;;;;;;5.20;99.90;;;;;;5032369;28;19958;-80
2022/12/18 07:56:50;;;;;;;;;;;5.30;99.90;;;;;;5034951;28;19913;-82
2022/12/18 07:59:16;;;;;;;;;;;5.30;99.90;;;;;;5035277;28;19929;-81
2022/12/18 08:01:41;;;;;;;;;;;5.30;99.90;;;;;;5024849;28;19914;-80
2022/12/18 08:04:07;;;;;;;;;;;5.30;99.90;;;;;;5020796;28;19993;-80
2022/12/18 08:06:32;;;;;;;;;;;5.40;99.90;;;;;;5018514;28;20262;-81
2022/12/18 08:08:58;;;;;;;;;;;5.40;99.90;;;;;;5015704;28;19981;-81
2022/12/18 08:11:25;;;;;;;;;;;5.40;99.90;;;;;;5015980;28;20369;-81
2022/12/18 08:13:50;;;;;;;;;;;5.40;99.90;;;;;;5014244;28;19909;-81
2022/12/18 08:16:16;;;;;;;;;;;5.40;99.90;;;;;;5014748;28;19955;-81
2022/12/18 08:18:42;;;;;;;;;;;5.40;99.90;;;;;;5014456;28;19933;-80
2022/12/18 08:21:11;;;;;;;;;;;5.40;99.90;;;;;;5013117;28;19933;-81
2022/12/18 08:23:37;;;;;;;;;;;5.40;99.90;;;;;;5014104;28;19914;-83
2022/12/18 08:26:02;;;;;;;;;;;5.50;99.90;;;;;;5013587;28;19941;-80
2022/12/18 08:28:28;;;;;;;;;;;5.40;99.90;;;;;;5013427;28;19935;-80
2022/12/18 08:30:53;;;;;;;;;;;5.40;99.90;;;;;;5013330;28;19928;-81
2022/12/18 08:33:19;;;;;;;;;;;5.40;99.90;;;;;;5013446;28;19941;-80
2022/12/18 08:35:45;;;;;;;;;;;5.40;99.90;;;;;;5013161;28;20239;-80
2022/12/18 08:38:10;;;;;;;;;;;5.40;99.90;;;;;;5013189;28;19996;-81
2022/12/18 08:40:36;;;;;;;;;;;5.40;99.90;;;;;;5013706;28;20442;-80
2022/12/18 08:45:45;;;;;;;;;;;5.30;99.90;;;;;;5013097;28;20012;-81
2022/12/18 08:48:11;;;;;;;;;;;5.40;99.90;;;;;;5012296;28;20098;-80
2022/12/18 08:50:36;;;;;;;;;;;5.40;99.90;;;;;;5012948;28;19988;-80
2022/12/18 08:53:02;;;;;;;;;;;5.40;99.90;;;;;;5012509;28;19920;-78
2022/12/18 08:55:28;;;;;;;;;;;5.40;99.90;;;;;;5012863;28;20355;-80
2022/12/18 08:57:53;;;;;;;;;;;5.40;99.90;;;;;;5013286;28;20004;-83
2022/12/18 09:00:19;;;;;;;;;;;5.40;99.90;;;;;;5016162;28;20000;-79
2022/12/18 09:02:45;;;;;;;;;;;5.40;99.90;;;;;;5016964;28;19971;-79
2022/12/18 09:05:10;;;;;;;;;;;5.50;99.90;;;;;;5016817;28;20379;-80
2022/12/18 09:07:36;;;;;;;;;;;5.50;99.90;;;;;;5016340;28;20286;-80
2022/12/18 09:10:02;;;;;;;;;;;5.40;99.90;;;;;;5016121;28;20362;-81
2022/12/18 09:12:27;;;;;;;;;;;5.50;99.90;;;;;;5016142;28;19956;-79
2022/12/18 09:14:53;;;;;;;;;;;5.50;99.90;;;;;;5016125;28;19920;-81
2022/12/18 09:17:18;;;;;;;;;;;5.60;99.90;;;;;;5016126;28;19913;-80
2022/12/18 09:19:44;;;;;;;;;;;5.60;99.90;;;;;;5015699;28;19913;-79
2022/12/18 09:22:10;;;;;;;;;;;5.60;99.90;;;;;;5016027;28;19944;-78
2022/12/18 09:24:35;;;;;;;;;;;5.70;99.90;;;;;;5015734;28;19929;-79
2022/12/18 09:27:01;;;;;;;;;;;5.70;99.90;;;;;;5015782;28;19913;-78
2022/12/18 09:29:26;;;;;;;;;;;5.70;99.90;;;;;;5015986;28;20274;-78
2022/12/18 09:31:52;;;;;;;;;;;5.70;99.90;;;;;;5015773;28;20382;-79
2022/12/18 09:34:18;;;;;;;;;;;5.70;99.90;;;;;;5015808;28;19909;-80
2022/12/18 09:36:43;;;;;;;;;;;5.70;99.90;;;;;;5015330;28;19922;-79
2022/12/18 09:39:09;;;;;;;;;;;5.70;99.90;;;;;;5015467;28;19909;-78
2022/12/18 09:41:40;;;;;;;;;;;5.70;99.90;;;;;;5015374;28;20012;-79
2022/12/18 09:44:26;;;;;;;;;;;5.70;99.90;;;;;;5014988;28;19920;-80
2022/12/18 09:46:54;;;;;;;;;;;5.80;99.90;;;;;;5014978;28;19914;-80
2022/12/18 09:49:22;;;;;;;;;;;5.80;99.90;;;;;;5015307;28;19972;-80
2022/12/18 09:51:59;;;;;;;;;;;5.80;99.90;;;;;;5015390;28;20017;-79
2022/12/18 09:54:46;;;;;;;;;;;5.80;99.90;;;;;;5015380;28;19992;-78
2022/12/18 09:57:22;;;;;;;;;;;5.80;99.90;;;;;;5015076;28;19925;-79
2022/12/18 09:59:59;;;;;;;;;;;5.80;99.90;;;;;;5015385;28;19910;-78
2022/12/18 10:02:25;;;;;;;;;;;5.80;99.90;;;;;;5015431;28;19910;-79
2022/12/18 10:04:57;;;;;;;;;;;5.80;99.90;;;;;;5015475;28;20305;-79
2022/12/18 10:07:28;;;;;;;;;;;5.90;99.90;;;;;;5013899;28;19917;-79
2022/12/18 10:10:07;;;;;;;;;;;5.90;99.90;;;;;;5015105;28;19909;-78
2022/12/18 10:12:37;;;;;;;;;;;5.90;99.90;;;;;;5015020;28;19921;-78
2022/12/18 10:15:25;;;;;;;;;;;6.00;99.90;;;;;;5014526;28;19959;-78
2022/12/18 10:18:09;;;;;;;;;;;5.90;99.90;;;;;;5012954;28;20067;-78
2022/12/18 10:20:39;;;;;;;;;;;6.00;99.90;;;;;;5014657;28;19992;-79
2022/12/18 10:23:23;;;;;;;;;;;6.00;99.90;;;;;;5013675;28;20200;-78
2022/12/18 10:25:57;;;;;;;;;;;6.00;99.90;;;;;;5014391;28;20306;-77
2022/12/18 10:28:24;;;;;;;;;;;6.00;99.90;;;;;;5014585;28;19914;-78
2022/12/18 10:30:50;;;;;;;;;;;6.00;99.90;;;;;;5014642;28;19910;-78
2022/12/18 10:33:19;;;;;;;;;;;6.00;99.90;;;;;;5014121;28;19921;-77
2022/12/18 10:35:46;;;;;;;;;;;6.00;99.90;;;;;;5014093;28;19917;-78
2022/12/18 10:38:12;;;;;;;;;;;6.10;99.90;;;;;;5014138;28;20153;-77
2022/12/18 10:40:52;;;;;;;;;;;6.20;99.90;;;;;;5013970;28;19910;-77
2022/12/18 10:43:25;;;;;;;;;;;6.20;99.90;;;;;;5013955;28;19913;-77
2022/12/18 10:46:02;;;;;;;;;;;6.20;99.90;;;;;;5013956;28;19923;-78
2022/12/18 10:48:28;;;;;;;;;;;6.20;99.90;;;;;;5013846;28;20328;-78
2022/12/18 10:50:53;;;;;;;;;;;6.30;99.90;;;;;;5014157;28;19964;-78
2022/12/18 10:53:22;;;;;;;;;;;6.40;99.90;;;;;;5013666;28;20274;-77
2022/12/18 10:55:48;;;;;;;;;;;6.40;99.90;;;;;;5013904;28;19909;-78
2022/12/18 10:58:22;;;;;;;;;;;6.50;99.90;;;;;;5013426;28;19928;-78
2022/12/18 11:01:07;;;;;;;;;;;6.50;99.90;;;;;;5012255;28;19914;-77
2022/12/18 11:03:35;;;;;;;;;;;6.50;99.90;;;;;;5013451;28;20030;-77
2022/12/18 11:06:02;;;;;;;;;;;6.50;99.90;;;;;;5013526;28;19921;-82
2022/12/18 11:08:28;;;;;;;;;;;6.60;99.90;;;;;;5013541;28;19996;-77
2022/12/18 11:10:53;;;;;;;;;;;6.60;99.90;;;;;;5013475;28;19999;-78
2022/12/18 11:13:23;;;;;;;;;;;6.60;99.90;;;;;;5011958;28;19909;-77
2022/12/18 11:15:49;;;;;;;;;;;6.60;99.90;;;;;;5013650;28;19913;-78
2022/12/18 11:18:29;;;;;;;;;;;6.60;99.90;;;;;;5013212;28;20048;-77
2022/12/18 11:21:12;;;;;;;;;;;6.60;99.90;;;;;;5013314;28;19913;-77
2022/12/18 11:23:47;;;;;;;;;;;6.60;99.90;;;;;;5013575;28;20346;-77
2022/12/18 11:26:13;;;;;;;;;;;6.60;99.90;;;;;;5013376;28;19918;-78
2022/12/18 11:28:40;;;;;;;;;;;6.70;99.90;;;;;;5013361;28;20330;-78
2022/12/18 11:31:09;;;;;;;;;;;6.70;99.90;;;;;;5012901;28;19914;-78
2022/12/18 11:33:35;;;;;;;;;;;6.70;99.90;;;;;;5013563;28;19977;-77
2022/12/18 11:36:03;;;;;;;;;;;6.70;99.90;;;;;;5011746;28;19925;-77
2022/12/18 11:38:36;;;;;;;;;;;6.70;99.90;;;;;;5013262;28;19909;-78
2022/12/18 11:41:05;;;;;;;;;;;6.80;99.90;;;;;;5012949;28;19909;-78
2022/12/18 11:43:37;;;;;;;;;;;6.70;99.90;;;;;;5012754;28;19957;-76
2022/12/18 11:46:06;;;;;;;;;;;6.80;99.90;;;;;;5013505;28;19917;-79
2022/12/18 11:48:41;;;;;;;;;;;6.80;99.90;;;;;;5014081;28;19909;-77
2022/12/18 11:51:11;;;;;;;;;;;6.90;99.90;;;;;;5013965;28;19979;-78
2022/12/18 11:53:38;;;;;;;;;;;6.90;99.90;;;;;;5013366;28;20004;-76
2022/12/18 11:56:03;;;;;;;;;;;7.00;99.90;;;;;;5013316;28;19917;-80
2022/12/18 11:58:40;;;;;;;;;;;7.00;99.90;;;;;;5013390;28;20000;-77
2022/12/18 12:01:14;;;;;;;;;;;7.00;99.90;;;;;;5013739;28;19932;-81
2022/12/18 12:03:55;;;;;;;;;;;7.10;99.90;;;;;;5013429;28;19955;-76
2022/12/18 12:06:39;;;;;;;;;;;7.00;99.90;;;;;;5012938;28;19917;-77
2022/12/18 12:09:05;;;;;;;;;;;7.10;99.90;;;;;;5013126;28;20329;-79
2022/12/18 12:11:46;;;;;;;;;;;7.10;99.90;;;;;;5012936;28;19910;-76
2022/12/18 12:14:30;;;;;;;;;;;7.10;99.90;;;;;;5033770;28;19912;-83
2022/12/18 12:16:56;;;;;;;;;;;7.10;99.90;;;;;;5036606;28;19913;-77
2022/12/18 12:19:35;;;;;;;;;;;7.20;99.90;;;;;;5036086;28;19910;-77
2022/12/18 12:22:20;;;;;;;;;;;7.20;99.90;;;;;;5032287;28;19924;-77
2022/12/18 12:24:58;;;;;;;;;;;7.20;99.90;;;;;;5013194;28;19925;-77
2022/12/18 12:27:42;;;;;;;;;;;7.30;99.90;;;;;;5013284;28;19994;-77
2022/12/18 12:30:08;;;;;;;;;;;7.30;99.90;;;;;;5012997;28;19909;-83
2022/12/18 12:32:36;;;;;;;;;;;7.30;99.90;;;;;;5013254;28;20339;-78
2022/12/18 12:35:02;;;;;;;;;;;7.40;99.90;;;;;;5013215;28;19937;-78
2022/12/18 12:37:36;;;;;;;;;;;7.40;99.90;;;;;;5012742;28;19918;-78
2022/12/18 12:40:02;;;;;;;;;;;7.50;99.90;;;;;;5013040;28;19963;-75
2022/12/18 12:45:21;;;;;;;;;;;7.60;99.90;;;;;;5012787;28;20350;-79
2022/12/18 12:47:49;;;;;;;;;;;7.70;99.90;;;;;;5012935;28;19914;-78
2022/12/18 12:50:16;;;;;;;;;;;7.70;99.90;;;;;;5011609;28;20047;-79
2022/12/18 12:52:52;;;;;;;;;;;7.70;99.90;;;;;;5012505;28;19917;-79
2022/12/18 12:55:28;;;;;;;;;;;7.80;99.90;;;;;;5013096;28;19909;-79
2022/12/18 12:57:57;;;;;;;;;;;7.90;99.90;;;;;;5013053;28;19917;-78
2022/12/18 13:00:24;;;;;;;;;;;7.90;99.90;;;;;;5012120;28;19918;-79
2022/12/18 13:02:59;;;;;;;;;;;7.90;99.90;;;;;;5012992;28;20039;-78
2022/12/18 13:05:25;;;;;;;;;;;8.00;99.90;;;;;;5012681;28;19925;-79
2022/12/18 13:08:02;;;;;;;;;;;8.00;99.90;;;;;;5012381;28;19909;-79
2022/12/18 13:10:35;;;;;;;;;;;8.10;99.90;;;;;;5012084;28;20240;-78
2022/12/18 13:13:02;;;;;;;;;;;8.20;99.90;;;;;;5012522;28;20396;-79
2022/12/18 13:15:38;;;;;;;;;;;8.30;99.90;;;;;;5012096;28;19917;-80
2022/12/18 13:18:05;;;;;;;;;;;8.30;99.90;;;;;;5012595;28;20262;-79
2022/12/18 13:20:39;;;;;;;;;;;8.40;99.90;;;;;;5012376;28;19945;-79
2022/12/18 13:23:20;;;;;;;;;;;8.40;99.90;;;;;;5012549;28;20004;-78
2022/12/18 13:25:45;;;;;;;;;;;8.50;99.90;;;;;;5012630;28;20089;-79
2022/12/18 13:28:15;;;;;;;;;;;8.50;99.90;;;;;;5012485;28;20059;-82
2022/12/18 13:30:42;;;;;;;;;;;8.50;99.90;;;;;;5012945;28;19921;-79
2022/12/18 13:33:13;;;;;;;;;;;8.70;99.90;;;;;;5012525;28;19979;-79
2022/12/18 13:35:45;;;;;;;;;;;8.70;99.90;;;;;;5011915;28;19917;-79
2022/12/18 13:38:32;;;;;;;;;;;8.80;99.90;;;;;;5012333;28;19920;-82
2022/12/18 13:40:58;;;;;;;;;;;8.80;99.90;;;;;;5012626;28;19945;-78
2022/12/18 13:43:50;;;;;;;;;;;8.90;99.90;;;;;;5011821;28;19920;-80
2022/12/18 13:46:16;;;;;;;;;;;9.00;99.90;;;;;;5013010;28;20321;-79
2022/12/18 13:48:48;;;;;;;;;;;9.00;99.90;;;;;;5014866;28;19983;-79
2022/12/18 13:51:17;;;;;;;;;;;9.10;99.90;;;;;;5014656;28;19916;-84
2022/12/18 13:53:44;;;;;;;;;;;9.20;99.90;;;;;;5015230;28;20013;-79
2022/12/18 13:56:15;;;;;;;;;;;9.20;99.90;;;;;;5014883;28;19909;-79
2022/12/18 13:58:40;;;;;;;;;;;9.20;99.90;;;;;;5015204;28;19909;-79
2022/12/18 14:01:21;;;;;;;;;;;9.20;99.90;;;;;;5014830;28;19920;-79
2022/12/18 14:03:46;;;;;;;;;;;9.30;99.90;;;;;;5014684;28;20266;-79
2022/12/18 14:06:13;;;;;;;;;;;9.30;99.90;;;;;;5014524;28;19922;-78
2022/12/18 14:08:39;;;;;;;;;;;9.50;99.90;;;;;;5013675;28;20327;-79
2022/12/18 14:11:06;;;;;;;;;;;9.50;99.90;;;;;;5014441;28;20377;-79
2022/12/18 14:13:35;;;;;;;;;;;9.50;99.90;;;;;;5014196;28;20016;-77
2022/12/18 14:16:03;;;;;;;;;;;9.50;99.90;;;;;;5014756;28;19909;-78
2022/12/18 14:18:48;;;;;;;;;;;9.50;99.90;;;;;;5014019;28;20026;-79
2022/12/18 14:21:23;;;;;;;;;;;9.40;99.90;;;;;;5013568;28;20381;-83
2022/12/18 14:23:49;;;;;;;;;;;9.40;99.90;;;;;;5014766;28;19924;-79
2022/12/18 14:26:27;;;;;;;;;;;9.40;99.90;;;;;;5013740;28;20294;-82
2022/12/18 14:28:53;;;;;;;;;;;9.40;99.90;;;;;;5014221;28;19932;-78
2022/12/18 14:31:30;;;;;;;;;;;9.30;99.90;;;;;;5013406;28;20335;-80
2022/12/18 14:33:55;;;;;;;;;;;9.30;99.90;;;;;;5014285;28;19910;-79
2022/12/18 14:36:23;;;;;;;;;;;9.40;99.90;;;;;;5013390;28;19921;-79
2022/12/18 14:38:53;;;;;;;;;;;9.50;99.90;;;;;;5012998;28;20339;-78
2022/12/18 14:41:19;;;;;;;;;;;9.50;99.90;;;;;;5016945;28;19910;-80
2022/12/18 14:43:46;;;;;;;;;;;9.50;99.90;;;;;;5016079;28;20387;-80
2022/12/18 14:46:29;;;;;;;;;;;9.50;99.90;;;;;;5014694;28;20330;-79
2022/12/18 14:48:55;;;;;;;;;;;9.50;99.90;;;;;;5014006;28;19959;-79